sensor_id;sensor_type;location;lat;lon;timestamp;P1;durP1;ratioP1;P2;durP2;ratioP2
34673;SDS011;20879;55.668;37.858;2023-12-29T00:00:08;7.63;;;3.20;;
34673;SDS011;20879;55.668;37.858;2023-12-29T00:02:40;6.53;;;2.80;;
34673;SDS011;20879;55.668;37.858;2023-12-29T00:05:21;4.25;;;2.80;;
34673;SDS011;20879;55.668;37.858;2023-12-29T00:08:03;3.28;;;2.65;;
34673;SDS011;20879;55.668;37.858;2023-12-29T00:10:43;4.30;;;2.85;;
34673;SDS011;20879;55.668;37.858;2023-12-29T00:13:16;3.88;;;2.72;;
34673;SDS011;20879;55.668;37.858;2023-12-29T00:15:52;4.35;;;2.75;;
34673;SDS011;20879;55.668;37.858;2023-12-29T00:18:27;4.00;;;2.90;;
34673;SDS011;20879;55.668;37.858;2023-12-29T00:21:10;3.58;;;2.70;;
34673;SDS011;20879;55.668;37.858;2023-12-29T00:23:46;4.07;;;2.67;;
34673;SDS011;20879;55.668;37.858;2023-12-29T00:26:18;2.88;;;2.20;;
34673;SDS011;20879;55.668;37.858;2023-12-29T00:28:58;4.30;;;2.67;;
34673;SDS011;20879;55.668;37.858;2023-12-29T00:31:34;3.67;;;2.42;;
34673;SDS011;20879;55.668;37.858;2023-12-29T00:34:12;4.57;;;2.85;;
34673;SDS011;20879;55.668;37.858;2023-12-29T00:36:45;4.18;;;2.53;;
34673;SDS011;20879;55.668;37.858;2023-12-29T00:39:24;3.40;;;2.60;;
34673;SDS011;20879;55.668;37.858;2023-12-29T00:42:04;6.35;;;2.70;;
34673;SDS011;20879;55.668;37.858;2023-12-29T00:44:45;5.05;;;2.80;;
34673;SDS011;20879;55.668;37.858;2023-12-29T00:47:28;4.97;;;2.90;;
34673;SDS011;20879;55.668;37.858;2023-12-29T00:50:11;4.57;;;3.47;;
34673;SDS011;20879;55.668;37.858;2023-12-29T00:52:44;5.18;;;3.08;;
34673;SDS011;20879;55.668;37.858;2023-12-29T00:55:25;5.53;;;3.50;;
34673;SDS011;20879;55.668;37.858;2023-12-29T00:58:02;5.03;;;3.00;;
34673;SDS011;20879;55.668;37.858;2023-12-29T01:00:35;5.75;;;3.00;;
34673;SDS011;20879;55.668;37.858;2023-12-29T01:03:15;5.18;;;3.35;;
34673;SDS011;20879;55.668;37.858;2023-12-29T01:05:52;4.35;;;2.63;;
34673;SDS011;20879;55.668;37.858;2023-12-29T01:08:30;5.07;;;3.15;;
34673;SDS011;20879;55.668;37.858;2023-12-29T01:11:12;3.85;;;2.97;;
34673;SDS011;20879;55.668;37.858;2023-12-29T01:13:43;4.47;;;3.13;;
34673;SDS011;20879;55.668;37.858;2023-12-29T01:16:17;4.32;;;2.88;;
34673;SDS011;20879;55.668;37.858;2023-12-29T01:18:58;3.90;;;2.85;;
34673;SDS011;20879;55.668;37.858;2023-12-29T01:21:32;4.53;;;2.92;;
34673;SDS011;20879;55.668;37.858;2023-12-29T01:24:09;4.97;;;3.13;;
34673;SDS011;20879;55.668;37.858;2023-12-29T01:26:56;5.88;;;3.20;;
34673;SDS011;20879;55.668;37.858;2023-12-29T01:35:51;5.00;;;3.40;;
34673;SDS011;20879;55.668;37.858;2023-12-29T01:38:27;5.18;;;3.65;;
34673;SDS011;20879;55.668;37.858;2023-12-29T01:41:05;8.15;;;3.92;;
34673;SDS011;20879;55.668;37.858;2023-12-29T01:46:58;4.85;;;3.47;;
34673;SDS011;20879;55.668;37.858;2023-12-29T01:49:33;6.35;;;3.60;;
34673;SDS011;20879;55.668;37.858;2023-12-29T01:52:05;6.53;;;3.45;;
34673;SDS011;20879;55.668;37.858;2023-12-29T01:54:41;7.15;;;3.80;;
34673;SDS011;20879;55.668;37.858;2023-12-29T01:57:21;5.15;;;3.33;;
34673;SDS011;20879;55.668;37.858;2023-12-29T02:00:00;5.57;;;3.47;;
34673;SDS011;20879;55.668;37.858;2023-12-29T02:02:42;4.65;;;3.17;;
34673;SDS011;20879;55.668;37.858;2023-12-29T02:11:34;5.95;;;3.63;;
34673;SDS011;20879;55.668;37.858;2023-12-29T02:14:29;5.90;;;3.83;;
34673;SDS011;20879;55.668;37.858;2023-12-29T02:26:35;5.70;;;3.50;;
34673;SDS011;20879;55.668;37.858;2023-12-29T02:32:31;7.40;;;3.50;;
34673;SDS011;20879;55.668;37.858;2023-12-29T02:35:11;6.68;;;3.10;;
34673;SDS011;20879;55.668;37.858;2023-12-29T02:44:11;5.40;;;2.40;;
34673;SDS011;20879;55.668;37.858;2023-12-29T02:52:51;5.88;;;2.60;;
34673;SDS011;20879;55.668;37.858;2023-12-29T02:55:22;5.35;;;2.35;;
34673;SDS011;20879;55.668;37.858;2023-12-29T02:58:01;4.22;;;2.60;;
34673;SDS011;20879;55.668;37.858;2023-12-29T03:00:40;7.82;;;2.30;;
34673;SDS011;20879;55.668;37.858;2023-12-29T03:03:11;5.45;;;2.63;;
34673;SDS011;20879;55.668;37.858;2023-12-29T03:06:19;3.95;;;2.72;;
34673;SDS011;20879;55.668;37.858;2023-12-29T03:08:56;4.45;;;2.60;;
34673;SDS011;20879;55.668;37.858;2023-12-29T03:11:35;4.88;;;2.65;;
34673;SDS011;20879;55.668;37.858;2023-12-29T03:14:11;4.13;;;2.67;;
34673;SDS011;20879;55.668;37.858;2023-12-29T03:16:47;4.05;;;2.60;;
34673;SDS011;20879;55.668;37.858;2023-12-29T03:19:20;3.83;;;2.40;;
34673;SDS011;20879;55.668;37.858;2023-12-29T03:21:51;6.82;;;2.60;;
34673;SDS011;20879;55.668;37.858;2023-12-29T03:24:50;4.20;;;2.60;;
34673;SDS011;20879;55.668;37.858;2023-12-29T03:27:21;3.83;;;2.47;;
34673;SDS011;20879;55.668;37.858;2023-12-29T03:29:54;3.03;;;2.00;;
34673;SDS011;20879;55.668;37.858;2023-12-29T03:32:35;8.35;;;2.50;;
34673;SDS011;20879;55.668;37.858;2023-12-29T03:35:06;4.85;;;2.33;;
34673;SDS011;20879;55.668;37.858;2023-12-29T03:37:44;5.45;;;2.63;;
34673;SDS011;20879;55.668;37.858;2023-12-29T03:40:14;4.45;;;2.25;;
34673;SDS011;20879;55.668;37.858;2023-12-29T03:42:47;3.90;;;2.40;;
34673;SDS011;20879;55.668;37.858;2023-12-29T03:45:19;7.22;;;2.53;;
34673;SDS011;20879;55.668;37.858;2023-12-29T03:47:54;5.38;;;2.63;;
34673;SDS011;20879;55.668;37.858;2023-12-29T03:50:25;5.18;;;2.80;;
34673;SDS011;20879;55.668;37.858;2023-12-29T04:04:39;4.40;;;2.90;;
34673;SDS011;20879;55.668;37.858;2023-12-29T04:07:17;3.55;;;2.60;;
34673;SDS011;20879;55.668;37.858;2023-12-29T04:09:59;4.68;;;3.40;;
34673;SDS011;20879;55.668;37.858;2023-12-29T04:12:43;4.90;;;2.60;;
34673;SDS011;20879;55.668;37.858;2023-12-29T04:15:19;4.93;;;2.60;;
34673;SDS011;20879;55.668;37.858;2023-12-29T04:17:54;4.93;;;2.78;;
34673;SDS011;20879;55.668;37.858;2023-12-29T04:20:32;5.68;;;2.75;;
34673;SDS011;20879;55.668;37.858;2023-12-29T04:23:07;5.35;;;2.90;;
34673;SDS011;20879;55.668;37.858;2023-12-29T04:25:43;5.25;;;2.83;;
34673;SDS011;20879;55.668;37.858;2023-12-29T04:28:27;5.22;;;2.88;;
34673;SDS011;20879;55.668;37.858;2023-12-29T04:33:37;4.55;;;2.90;;
34673;SDS011;20879;55.668;37.858;2023-12-29T04:36:12;5.95;;;3.13;;
34673;SDS011;20879;55.668;37.858;2023-12-29T04:38:47;7.05;;;3.35;;
34673;SDS011;20879;55.668;37.858;2023-12-29T04:41:25;5.88;;;3.58;;
34673;SDS011;20879;55.668;37.858;2023-12-29T04:43:54;6.63;;;3.40;;
34673;SDS011;20879;55.668;37.858;2023-12-29T04:52:50;6.45;;;3.85;;
34673;SDS011;20879;55.668;37.858;2023-12-29T04:55:23;7.20;;;4.07;;
34673;SDS011;20879;55.668;37.858;2023-12-29T04:58:08;7.43;;;4.28;;
34673;SDS011;20879;55.668;37.858;2023-12-29T05:00:48;6.25;;;3.67;;
34673;SDS011;20879;55.668;37.858;2023-12-29T10:25:09;12.80;;;5.70;;
34673;SDS011;20879;55.668;37.858;2023-12-29T13:20:35;11.07;;;5.80;;
34673;SDS011;20879;55.668;37.858;2023-12-29T17:26:57;12.40;;;7.75;;
34673;SDS011;20879;55.668;37.858;2023-12-29T17:29:43;12.82;;;7.93;;
34673;SDS011;20879;55.668;37.858;2023-12-29T17:32:24;11.43;;;7.97;;
34673;SDS011;20879;55.668;37.858;2023-12-29T17:34:57;12.90;;;7.40;;
34673;SDS011;20879;55.668;37.858;2023-12-29T17:37:35;15.20;;;8.55;;
34673;SDS011;20879;55.668;37.858;2023-12-29T17:40:18;12.88;;;7.90;;
34673;SDS011;20879;55.668;37.858;2023-12-29T17:42:54;13.00;;;8.60;;
34673;SDS011;20879;55.668;37.858;2023-12-29T17:45:53;12.77;;;8.23;;
34673;SDS011;20879;55.668;37.858;2023-12-29T17:48:48;14.25;;;8.30;;
34673;SDS011;20879;55.668;37.858;2023-12-29T17:51:21;11.38;;;7.13;;
34673;SDS011;20879;55.668;37.858;2023-12-29T17:53:59;11.07;;;7.70;;
34673;SDS011;20879;55.668;37.858;2023-12-29T17:56:46;12.98;;;8.23;;
34673;SDS011;20879;55.668;37.858;2023-12-29T17:59:27;17.02;;;9.75;;
34673;SDS011;20879;55.668;37.858;2023-12-29T18:02:03;17.17;;;9.23;;
34673;SDS011;20879;55.668;37.858;2023-12-29T18:04:36;11.85;;;7.90;;
34673;SDS011;20879;55.668;37.858;2023-12-29T18:07:23;14.07;;;8.60;;
34673;SDS011;20879;55.668;37.858;2023-12-29T18:10:04;12.75;;;8.60;;
34673;SDS011;20879;55.668;37.858;2023-12-29T18:12:59;14.18;;;8.35;;
34673;SDS011;20879;55.668;37.858;2023-12-29T18:15:35;15.60;;;8.55;;
34673;SDS011;20879;55.668;37.858;2023-12-29T18:18:19;13.43;;;8.30;;
34673;SDS011;20879;55.668;37.858;2023-12-29T18:21:03;15.85;;;8.38;;
34673;SDS011;20879;55.668;37.858;2023-12-29T18:23:36;11.98;;;8.10;;
34673;SDS011;20879;55.668;37.858;2023-12-29T18:26:07;12.60;;;8.25;;
34673;SDS011;20879;55.668;37.858;2023-12-29T18:28:52;13.52;;;8.75;;
34673;SDS011;20879;55.668;37.858;2023-12-29T18:31:28;11.90;;;8.02;;
34673;SDS011;20879;55.668;37.858;2023-12-29T18:34:03;14.05;;;8.02;;
34673;SDS011;20879;55.668;37.858;2023-12-29T18:36:42;12.25;;;7.68;;
34673;SDS011;20879;55.668;37.858;2023-12-29T18:39:29;13.20;;;8.15;;
34673;SDS011;20879;55.668;37.858;2023-12-29T18:44:56;11.98;;;8.00;;
34673;SDS011;20879;55.668;37.858;2023-12-29T18:47:33;11.68;;;7.63;;
34673;SDS011;20879;55.668;37.858;2023-12-29T18:50:10;13.25;;;8.18;;
34673;SDS011;20879;55.668;37.858;2023-12-29T18:52:46;14.07;;;8.93;;
34673;SDS011;20879;55.668;37.858;2023-12-29T21:19:04;19.83;;;11.55;;
34673;SDS011;20879;55.668;37.858;2023-12-29T21:22:03;17.08;;;11.05;;
34673;SDS011;20879;55.668;37.858;2023-12-29T21:24:34;18.52;;;11.60;;
34673;SDS011;20879;55.668;37.858;2023-12-29T22:08:37;10.30;;;6.35;;
34673;SDS011;20879;55.668;37.858;2023-12-29T22:20:25;10.13;;;7.15;;
34673;SDS011;20879;55.668;37.858;2023-12-29T22:23:03;10.02;;;7.15;;
34673;SDS011;20879;55.668;37.858;2023-12-29T22:25:49;10.95;;;7.95;;
34673;SDS011;20879;55.668;37.858;2023-12-29T22:28:22;11.98;;;7.90;;
34673;SDS011;20879;55.668;37.858;2023-12-29T22:30:55;13.38;;;8.32;;
34673;SDS011;20879;55.668;37.858;2023-12-29T22:33:35;12.52;;;8.38;;
34673;SDS011;20879;55.668;37.858;2023-12-29T22:39:35;14.32;;;8.90;;
34673;SDS011;20879;55.668;37.858;2023-12-29T22:45:36;13.35;;;8.98;;
34673;SDS011;20879;55.668;37.858;2023-12-29T22:48:08;14.55;;;9.73;;
34673;SDS011;20879;55.668;37.858;2023-12-29T22:50:48;14.88;;;9.90;;
34673;SDS011;20879;55.668;37.858;2023-12-29T22:53:22;16.98;;;10.50;;
34673;SDS011;20879;55.668;37.858;2023-12-29T22:56:00;16.98;;;10.45;;
34673;SDS011;20879;55.668;37.858;2023-12-29T22:59:07;16.17;;;10.10;;
34673;SDS011;20879;55.668;37.858;2023-12-29T23:01:49;16.15;;;10.95;;
34673;SDS011;20879;55.668;37.858;2023-12-29T23:14:04;15.27;;;10.70;;
34673;SDS011;20879;55.668;37.858;2023-12-29T23:16:52;17.13;;;11.85;;
34673;SDS011;20879;55.668;37.858;2023-12-29T23:19:29;16.02;;;11.95;;
34673;SDS011;20879;55.668;37.858;2023-12-29T23:37:16;16.55;;;10.50;;
34673;SDS011;20879;55.668;37.858;2023-12-29T23:39:48;13.82;;;10.07;;
34673;SDS011;20879;55.668;37.858;2023-12-29T23:42:22;14.65;;;9.85;;
34673;SDS011;20879;55.668;37.858;2023-12-29T23:45:00;14.65;;;9.57;;
34673;SDS011;20879;55.668;37.858;2023-12-29T23:47:34;14.77;;;9.55;;
34673;SDS011;20879;55.668;37.858;2023-12-29T23:50:12;15.18;;;9.15;;
34673;SDS011;20879;55.668;37.858;2023-12-29T23:52:55;13.60;;;9.48;;
34673;SDS011;20879;55.668;37.858;2023-12-29T23:55:37;13.65;;;8.45;;
34673;SDS011;20879;55.668;37.858;2023-12-29T23:58:18;12.60;;;9.05;;
